createdAt,value
2018-11-01T00:00:21.862Z,8.87
2018-11-01T00:02:50.405Z,9.43
2018-11-01T00:05:19.100Z,8.83
2018-11-01T00:07:47.651Z,8.87
2018-11-01T00:10:16.299Z,9.20
2018-11-01T00:12:45.184Z,8.97
2018-11-01T00:15:15.101Z,9.20
2018-11-01T00:17:43.668Z,8.83
2018-11-01T00:20:13.356Z,8.50
2018-11-01T00:22:42.544Z,9.70
2018-11-01T00:25:12.232Z,9.43
2018-11-01T00:27:41.653Z,8.97
2018-11-01T00:30:10.637Z,8.40
2018-11-01T00:32:39.476Z,9.33
2018-11-01T00:35:08.720Z,9.37
2018-11-01T00:37:37.339Z,7.90
2018-11-01T00:40:08.709Z,9.90
2018-11-01T00:42:37.287Z,8.63
2018-11-01T00:45:06.948Z,8.90
2018-11-01T00:47:35.663Z,9.60
2018-11-01T00:50:04.212Z,9.17
2018-11-01T00:52:32.737Z,9.00
2018-11-01T00:55:01.268Z,9.23
2018-11-01T00:57:29.856Z,9.40
2018-11-01T00:59:58.386Z,8.10
2018-11-01T01:02:26.999Z,10.53
2018-11-01T01:04:55.547Z,11.27
2018-11-01T01:07:24.090Z,10.60
2018-11-01T01:09:52.621Z,10.50
2018-11-01T01:12:21.204Z,10.30
2018-11-01T01:14:49.741Z,11.10
2018-11-01T01:17:18.270Z,10.20
2018-11-01T01:19:46.772Z,9.27
2018-11-01T01:22:15.312Z,11.37
2018-11-01T01:24:43.885Z,10.57
2018-11-01T01:27:12.454Z,12.07
2018-11-01T01:29:41.053Z,33.03
2018-11-01T01:32:09.631Z,40.60
2018-11-01T01:34:38.346Z,40.30
2018-11-01T01:37:07.016Z,36.70
2018-11-01T01:39:35.557Z,38.33
2018-11-01T01:42:04.164Z,28.13
2018-11-01T01:44:32.752Z,28.27
2018-11-01T01:47:01.361Z,70.03
2018-11-01T01:49:29.888Z,19.90
2018-11-01T01:51:58.440Z,16.77
2018-11-01T01:54:27.013Z,16.37
2018-11-01T01:56:55.553Z,17.27
2018-11-01T01:59:24.208Z,44.30
2018-11-01T02:01:52.746Z,38.37
2018-11-01T02:04:21.284Z,36.20
2018-11-01T02:06:49.873Z,29.23
2018-11-01T02:09:18.412Z,35.03
2018-11-01T02:11:47.045Z,57.23
2018-11-01T02:14:15.564Z,93.70
2018-11-01T02:16:44.124Z,91.33
2018-11-01T02:19:12.677Z,93.57
2018-11-01T02:21:41.220Z,83.07
2018-11-01T02:24:09.784Z,62.03
2018-11-01T02:26:38.360Z,65.90
2018-11-01T02:29:06.911Z,56.40
2018-11-01T02:31:35.442Z,59.10
2018-11-01T02:34:04.051Z,57.23
2018-11-01T02:36:32.567Z,50.57
2018-11-01T02:39:01.067Z,99.93
2018-11-01T02:41:29.571Z,84.57
2018-11-01T02:43:58.058Z,79.70
2018-11-01T02:46:26.536Z,66.43
2018-11-01T02:48:55.014Z,57.77
2018-11-01T02:51:23.467Z,42.57
2018-11-01T02:53:51.962Z,29.63
2018-11-01T02:56:20.473Z,24.23
2018-11-01T02:58:48.927Z,19.03
2018-11-01T03:01:18.094Z,20.80
2018-11-01T03:03:48.172Z,17.23
2018-11-01T03:06:17.070Z,19.43
2018-11-01T03:08:45.705Z,18.60
2018-11-01T03:11:14.392Z,20.33
2018-11-01T03:13:43.135Z,29.57
2018-11-01T03:16:11.623Z,28.40
2018-11-01T03:18:40.204Z,32.87
2018-11-01T03:21:08.703Z,30.53
2018-11-01T03:23:37.154Z,26.93
2018-11-01T03:26:05.659Z,25.00
2018-11-01T03:28:34.137Z,22.80
2018-11-01T03:31:02.929Z,21.53
2018-11-01T03:33:31.423Z,20.30
2018-11-01T03:35:59.871Z,19.00
2018-11-01T03:38:28.435Z,18.47
2018-11-01T03:40:56.886Z,17.93
2018-11-01T03:43:25.367Z,18.53
2018-11-01T03:45:53.875Z,16.17
2018-11-01T03:48:22.332Z,17.97
2018-11-01T03:50:50.814Z,18.07
2018-11-01T03:53:19.341Z,16.53
2018-11-01T03:55:47.803Z,15.77
2018-11-01T03:58:16.269Z,17.23
2018-11-01T04:00:44.715Z,17.93
2018-11-01T04:03:13.210Z,15.63
2018-11-01T04:05:41.681Z,16.17
2018-11-01T04:08:10.166Z,15.83
2018-11-01T04:10:38.634Z,15.73
2018-11-01T04:13:07.112Z,15.30
2018-11-01T04:15:35.630Z,14.43
2018-11-01T04:18:04.114Z,14.77
2018-11-01T04:20:32.617Z,14.73
2018-11-01T04:23:01.143Z,14.63
2018-11-01T04:25:29.642Z,12.77
2018-11-01T04:27:58.122Z,12.33
2018-11-01T04:30:26.608Z,18.27
2018-11-01T04:32:55.108Z,15.80
2018-11-01T04:35:23.614Z,15.43
2018-11-01T04:37:52.052Z,15.83
2018-11-01T04:40:20.545Z,15.83
2018-11-01T04:42:49.055Z,14.47
2018-11-01T04:45:17.550Z,15.20
2018-11-01T04:47:46.182Z,16.30
2018-11-01T04:50:14.582Z,14.33
2018-11-01T04:52:43.604Z,15.30
2018-11-01T04:55:12.082Z,14.80
2018-11-01T04:57:41.071Z,14.70
2018-11-01T05:00:12.501Z,13.83
2018-11-01T05:02:41.409Z,15.30
2018-11-01T05:05:09.989Z,12.90
2018-11-01T05:07:38.790Z,14.20
2018-11-01T05:10:08.993Z,13.67
2018-11-01T05:12:38.119Z,15.07
2018-11-01T05:15:07.035Z,13.10
2018-11-01T05:17:35.514Z,14.57
2018-11-01T05:20:04.229Z,15.53
2018-11-01T05:22:32.666Z,17.80
2018-11-01T05:25:01.146Z,15.37
2018-11-01T05:27:29.653Z,14.27
2018-11-01T05:29:58.105Z,16.43
2018-11-01T05:32:26.583Z,16.80
2018-11-01T05:34:55.079Z,17.07
2018-11-01T05:37:23.561Z,17.07
2018-11-01T05:39:52.049Z,16.73
2018-11-01T05:42:20.553Z,18.13
2018-11-01T05:44:49.048Z,15.87
2018-11-01T05:47:17.522Z,19.77
2018-11-01T05:49:46.005Z,20.23
2018-11-01T05:52:14.508Z,17.17
2018-11-01T05:54:42.985Z,19.53
2018-11-01T05:57:11.485Z,17.97
2018-11-01T05:59:39.957Z,16.23
2018-11-01T06:02:09.386Z,18.00
2018-11-01T06:04:37.887Z,16.83
2018-11-01T06:07:06.373Z,15.47
2018-11-01T06:09:34.860Z,14.97
2018-11-01T06:12:03.340Z,16.80
2018-11-01T06:14:31.811Z,15.43
2018-11-01T06:17:00.266Z,13.93
2018-11-01T06:19:28.747Z,17.50
2018-11-01T06:21:57.225Z,15.50
2018-11-01T06:24:25.675Z,15.63
2018-11-01T06:26:54.155Z,15.93
2018-11-01T06:29:22.626Z,16.20
2018-11-01T06:31:51.091Z,13.70
2018-11-01T06:34:26.217Z,17.03
2018-11-01T06:36:54.906Z,17.53
2018-11-01T06:39:23.387Z,14.23
2018-11-01T06:41:52.934Z,13.40
2018-11-01T06:44:21.440Z,13.97
2018-11-01T06:46:49.985Z,16.37
2018-11-01T06:49:19.584Z,16.13
2018-11-01T06:51:48.076Z,16.03
2018-11-01T06:54:16.945Z,17.70
2018-11-01T06:56:45.417Z,16.00
2018-11-01T06:59:14.100Z,14.17
2018-11-01T07:01:42.415Z,15.67
2018-11-01T07:04:10.903Z,13.90
2018-11-01T07:06:39.374Z,12.07
2018-11-01T07:09:11.119Z,13.53
2018-11-01T07:11:39.674Z,14.90
2018-11-01T07:14:09.291Z,16.47
2018-11-01T07:16:37.822Z,16.00
2018-11-01T07:19:06.467Z,15.67
2018-11-01T07:21:35.086Z,16.67
2018-11-01T07:24:03.587Z,16.50
2018-11-01T07:26:32.313Z,15.80
2018-11-01T07:29:00.723Z,15.23
2018-11-01T07:31:29.262Z,14.47
2018-11-01T07:33:57.726Z,16.80
2018-11-01T07:36:26.239Z,13.13
2018-11-01T07:38:54.703Z,13.37
2018-11-01T07:41:23.171Z,15.20
2018-11-01T07:43:51.656Z,16.30
2018-11-01T07:46:20.142Z,17.17
2018-11-01T07:48:48.764Z,14.07
2018-11-01T07:51:17.150Z,14.80
2018-11-01T07:53:45.629Z,15.37
2018-11-01T07:56:14.201Z,15.57
2018-11-01T07:58:42.713Z,13.70
2018-11-01T08:01:11.178Z,14.33
2018-11-01T08:03:39.662Z,13.57
2018-11-01T08:06:08.147Z,14.80
2018-11-01T08:08:36.619Z,14.27
2018-11-01T08:11:05.353Z,13.97
2018-11-01T08:13:33.843Z,14.03
2018-11-01T08:16:02.335Z,13.50
2018-11-01T08:18:30.794Z,11.10
2018-11-01T08:20:59.333Z,12.33
2018-11-01T08:23:27.750Z,13.40
2018-11-01T08:25:56.216Z,12.90
2018-11-01T08:28:24.733Z,14.33
2018-11-01T08:30:53.184Z,12.13
2018-11-01T08:33:21.676Z,13.60
2018-11-01T08:35:50.170Z,14.27
2018-11-01T08:38:18.640Z,10.47
2018-11-01T08:40:47.149Z,18.37
2018-11-01T08:43:15.729Z,14.77
2018-11-01T08:45:44.324Z,13.90
2018-11-01T08:48:12.798Z,13.70
2018-11-01T08:50:41.236Z,12.87
2018-11-01T08:53:09.702Z,12.30
2018-11-01T08:55:38.174Z,11.97
2018-11-01T08:58:06.730Z,11.63
2018-11-01T09:00:35.182Z,13.63
2018-11-01T09:03:03.671Z,19.57
2018-11-01T09:05:32.170Z,13.93
2018-11-01T09:08:00.722Z,12.40
2018-11-01T09:10:29.195Z,11.80
2018-11-01T09:12:57.773Z,13.13
2018-11-01T09:15:26.279Z,13.77
2018-11-01T09:17:54.784Z,12.57
2018-11-01T09:20:23.255Z,12.07
2018-11-01T09:22:51.754Z,10.17
2018-11-01T09:25:20.249Z,12.63
2018-11-01T09:27:48.778Z,11.30
2018-11-01T09:30:17.290Z,10.47
2018-11-01T09:32:45.813Z,10.20
2018-11-01T09:35:14.292Z,10.73
2018-11-01T09:37:43.205Z,10.60
2018-11-01T09:40:13.038Z,10.37
2018-11-01T09:42:41.925Z,10.97
2018-11-01T09:45:10.438Z,9.20
2018-11-01T09:47:39.454Z,8.17
2018-11-01T09:50:08.891Z,9.03
2018-11-01T09:52:37.567Z,8.30
2018-11-01T09:55:06.620Z,6.63
2018-11-01T09:57:35.269Z,7.17
2018-11-01T10:00:04.599Z,6.47
2018-11-01T10:02:33.090Z,5.43
2018-11-01T10:05:01.583Z,5.30
2018-11-01T10:07:30.082Z,4.50
2018-11-01T10:09:58.590Z,4.97
2018-11-01T10:12:27.106Z,4.53
2018-11-01T10:14:55.663Z,4.80
2018-11-01T10:17:24.628Z,4.37
2018-11-01T10:19:52.673Z,4.07
2018-11-01T10:22:21.262Z,4.03
2018-11-01T10:24:50.471Z,4.10
2018-11-01T10:27:20.070Z,4.37
2018-11-01T10:29:47.486Z,3.93
2018-11-01T10:32:15.955Z,3.97
2018-11-01T10:34:44.460Z,3.70
2018-11-01T10:37:12.920Z,3.03
2018-11-01T10:39:41.391Z,3.50
2018-11-01T10:42:09.869Z,3.90
2018-11-01T10:44:38.352Z,3.37
2018-11-01T10:47:06.880Z,3.23
2018-11-01T10:49:35.342Z,3.13
2018-11-01T10:52:03.867Z,2.70
2018-11-01T10:54:32.350Z,3.67
2018-11-01T10:57:00.855Z,3.33
2018-11-01T10:59:29.343Z,3.90
2018-11-01T11:02:03.310Z,4.03
2018-11-01T11:04:31.801Z,3.93
2018-11-01T11:07:00.250Z,3.60
2018-11-01T11:09:28.744Z,3.10
2018-11-01T11:11:57.193Z,3.60
2018-11-01T11:14:25.733Z,3.63
2018-11-01T11:16:54.162Z,3.70
2018-11-01T11:19:22.665Z,5.53
2018-11-01T11:21:51.148Z,7.00
2018-11-01T11:24:19.631Z,5.83
2018-11-01T11:26:48.107Z,5.22
2018-11-01T11:29:16.562Z,3.13
2018-11-01T11:31:45.133Z,5.47
2018-11-01T11:34:13.619Z,4.77
2018-11-01T11:36:42.103Z,3.73
2018-11-01T11:39:11.960Z,2.93
2018-11-01T11:41:40.955Z,2.80
2018-11-01T11:44:09.961Z,2.03
2018-11-01T11:46:38.765Z,2.50
2018-11-01T11:49:07.420Z,1.87
2018-11-01T11:51:36.467Z,2.27
2018-11-01T11:54:05.400Z,2.70
2018-11-01T11:56:33.875Z,2.90
2018-11-01T11:59:02.684Z,2.80
2018-11-01T12:01:31.167Z,2.17
2018-11-01T12:03:59.663Z,2.50
2018-11-01T12:06:28.141Z,2.97
2018-11-01T12:08:56.623Z,2.60
2018-11-01T12:11:25.179Z,3.40
2018-11-01T12:13:53.667Z,2.20
2018-11-01T12:16:22.157Z,2.30
2018-11-01T12:18:50.626Z,2.67
2018-11-01T12:21:19.126Z,3.50
2018-11-01T12:23:47.590Z,3.33
2018-11-01T12:26:16.229Z,2.70
2018-11-01T12:28:44.886Z,2.93
2018-11-01T12:31:13.191Z,2.80
2018-11-01T12:33:41.646Z,2.63
2018-11-01T12:36:10.255Z,2.40
2018-11-01T12:38:38.602Z,4.67
2018-11-01T12:41:07.089Z,4.50
2018-11-01T12:43:35.542Z,3.43
2018-11-01T12:46:04.018Z,3.87
2018-11-01T12:48:32.497Z,2.83
2018-11-01T12:51:00.964Z,2.00
2018-11-01T12:53:29.475Z,2.10
2018-11-01T12:55:57.950Z,2.43
2018-11-01T12:58:26.421Z,2.40
2018-11-01T13:00:54.918Z,2.43
2018-11-01T13:03:23.395Z,2.60
2018-11-01T13:05:51.881Z,1.60
2018-11-01T13:08:20.574Z,2.30
2018-11-01T13:10:49.314Z,2.90
2018-11-01T13:13:17.725Z,2.67
2018-11-01T13:15:46.229Z,2.30
2018-11-01T13:18:14.715Z,2.00
2018-11-01T13:20:43.190Z,2.10
2018-11-01T13:23:11.669Z,2.37
2018-11-01T13:25:40.154Z,2.30
2018-11-01T13:28:08.653Z,2.17
2018-11-01T13:30:37.173Z,2.93
2018-11-01T13:33:05.942Z,2.87
2018-11-01T13:35:34.482Z,2.30
2018-11-01T13:38:02.936Z,2.10
2018-11-01T13:40:31.814Z,2.80
2018-11-01T13:42:59.906Z,2.60
2018-11-01T13:45:28.388Z,2.57
2018-11-01T13:47:56.914Z,2.20
2018-11-01T13:50:25.354Z,2.87
2018-11-01T13:52:53.818Z,1.90
2018-11-01T13:55:22.291Z,2.20
2018-11-01T13:57:50.737Z,1.90
2018-11-01T14:00:19.191Z,2.40
2018-11-01T14:02:47.643Z,2.27
2018-11-01T14:05:17.175Z,2.10
2018-11-01T14:07:45.810Z,2.20
2018-11-01T14:10:15.341Z,2.17
2018-11-01T14:12:43.994Z,2.23
2018-11-01T14:15:12.921Z,2.13
2018-11-01T14:17:41.670Z,2.33
2018-11-01T14:20:12.238Z,2.20
2018-11-01T14:22:40.860Z,2.67
2018-11-01T14:25:10.845Z,2.27
2018-11-01T14:27:39.494Z,2.50
2018-11-01T14:30:10.610Z,2.83
2018-11-01T14:32:39.441Z,2.50
2018-11-01T14:35:08.238Z,2.80
2018-11-01T14:37:36.815Z,2.30
2018-11-01T14:40:06.807Z,2.07
2018-11-01T14:42:35.314Z,3.17
2018-11-01T14:45:03.873Z,2.53
2018-11-01T14:47:32.367Z,2.43
2018-11-01T14:50:00.830Z,2.20
2018-11-01T14:52:29.832Z,6.30
2018-11-01T14:54:59.032Z,3.60
2018-11-01T14:57:28.276Z,3.70
2018-11-01T14:59:55.868Z,3.50
2018-11-01T15:02:23.971Z,2.57
2018-11-01T15:04:52.478Z,2.90
2018-11-01T15:07:20.934Z,3.80
2018-11-01T15:09:49.383Z,2.63
2018-11-01T15:12:17.905Z,3.23
2018-11-01T15:14:46.350Z,6.07
2018-11-01T15:17:14.850Z,4.10
2018-11-01T15:19:43.387Z,3.90
2018-11-01T15:22:11.883Z,2.97
2018-11-01T15:24:40.419Z,4.07
2018-11-01T15:27:08.921Z,5.90
2018-11-01T15:29:37.677Z,6.27
2018-11-01T15:32:06.168Z,5.70
2018-11-01T15:34:35.072Z,4.10
2018-11-01T15:37:03.562Z,3.70
2018-11-01T15:39:32.022Z,3.20
2018-11-01T15:42:00.484Z,3.50
2018-11-01T15:44:28.963Z,3.00
2018-11-01T15:46:57.530Z,3.07
2018-11-01T15:49:26.006Z,3.10
2018-11-01T15:51:54.544Z,2.87
2018-11-01T15:54:22.958Z,3.20
2018-11-01T15:56:51.434Z,2.97
2018-11-01T15:59:19.926Z,3.20
2018-11-01T16:01:48.424Z,2.73
2018-11-01T16:04:16.883Z,2.30
2018-11-01T16:06:45.379Z,3.17
2018-11-01T16:09:14.378Z,2.83
2018-11-01T16:11:43.172Z,2.90
2018-11-01T16:14:11.946Z,3.10
2018-11-01T16:16:40.733Z,2.53
2018-11-01T16:19:10.133Z,2.53
2018-11-01T16:21:38.826Z,3.10
2018-11-01T16:24:07.334Z,2.20
2018-11-01T16:26:35.850Z,2.80
2018-11-01T16:29:04.342Z,3.17
2018-11-01T16:31:32.822Z,3.10
2018-11-01T16:34:01.303Z,2.70
2018-11-01T16:36:29.824Z,2.53
2018-11-01T16:38:58.270Z,2.50
2018-11-01T16:41:26.814Z,2.90
2018-11-01T16:43:55.296Z,2.20
2018-11-01T16:46:23.812Z,3.10
2018-11-01T16:48:52.301Z,2.97
2018-11-01T16:51:20.775Z,3.53
2018-11-01T16:53:49.281Z,3.40
2018-11-01T16:56:17.751Z,3.50
2018-11-01T16:58:46.230Z,3.60
2018-11-01T17:01:14.719Z,3.80
2018-11-01T17:03:43.182Z,3.70
2018-11-01T17:06:11.670Z,3.20
2018-11-01T17:08:40.280Z,4.00
2018-11-01T17:11:08.693Z,2.90
2018-11-01T17:13:37.162Z,3.23
2018-11-01T17:16:06.308Z,4.43
2018-11-01T17:18:34.815Z,2.73
2018-11-01T17:21:03.317Z,3.50
2018-11-01T17:23:32.275Z,3.60
2018-11-01T17:26:00.743Z,3.50
2018-11-01T17:28:29.227Z,3.23
2018-11-01T17:30:57.706Z,3.53
2018-11-01T17:33:26.196Z,3.43
2018-11-01T17:35:54.667Z,3.73
2018-11-01T17:38:23.138Z,3.53
2018-11-01T17:40:51.622Z,3.50
2018-11-01T17:43:20.188Z,2.93
2018-11-01T17:45:48.643Z,3.40
2018-11-01T17:48:17.118Z,3.00
2018-11-01T17:50:46.442Z,3.00
2018-11-01T17:53:14.918Z,3.93
2018-11-01T17:55:43.388Z,3.87
2018-11-01T17:58:11.874Z,6.33
2018-11-01T18:00:40.346Z,4.63
2018-11-01T18:03:08.873Z,4.07
2018-11-01T18:05:37.338Z,4.23
2018-11-01T18:08:06.157Z,3.80
2018-11-01T18:10:34.650Z,4.33
2018-11-01T18:13:03.171Z,3.50
2018-11-01T18:15:31.668Z,11.93
2018-11-01T18:18:00.171Z,12.33
2018-11-01T18:20:28.687Z,8.77
2018-11-01T18:22:57.148Z,6.57
2018-11-01T18:25:25.654Z,4.80
2018-11-01T18:27:54.094Z,10.70
2018-11-01T18:30:22.704Z,7.37
2018-11-01T18:32:51.378Z,5.00
2018-11-01T18:35:19.651Z,4.20
2018-11-01T18:37:48.170Z,3.47
2018-11-01T18:40:17.915Z,3.33
2018-11-01T18:42:46.398Z,3.47
2018-11-01T18:45:15.595Z,3.53
2018-11-01T18:47:44.507Z,3.70
2018-11-01T18:50:14.430Z,3.83
2018-11-01T18:52:43.080Z,4.07
2018-11-01T18:55:12.422Z,3.50
2018-11-01T18:57:41.887Z,3.70
2018-11-01T19:00:13.292Z,3.70
2018-11-01T19:02:41.923Z,3.80
2018-11-01T19:05:11.170Z,4.20
2018-11-01T19:07:39.822Z,3.73
2018-11-01T19:10:10.084Z,5.00
2018-11-01T19:12:38.554Z,4.33
2018-11-01T19:15:08.578Z,4.67
2018-11-01T19:17:37.522Z,3.50
2018-11-01T19:20:06.941Z,3.67
2018-11-01T19:22:35.616Z,4.27
2018-11-01T19:25:04.157Z,4.03
2018-11-01T19:27:32.971Z,3.77
2018-11-01T19:30:01.377Z,3.87
2018-11-01T19:32:29.871Z,3.70
2018-11-01T19:34:58.358Z,4.77
2018-11-01T19:37:27.100Z,3.80
2018-11-01T19:39:55.767Z,3.87
2018-11-01T19:42:24.106Z,3.40
2018-11-01T19:44:52.635Z,3.30
2018-11-01T19:47:21.334Z,3.27
2018-11-01T19:49:49.934Z,3.60
2018-11-01T19:52:18.287Z,3.77
2018-11-01T19:54:46.816Z,3.40
2018-11-01T19:57:15.259Z,4.33
2018-11-01T19:59:43.710Z,4.10
2018-11-01T20:02:12.238Z,4.30
2018-11-01T20:04:40.716Z,3.67
2018-11-01T20:07:09.194Z,4.50
2018-11-01T20:09:37.754Z,4.43
2018-11-01T20:12:06.635Z,4.77
2018-11-01T20:14:35.164Z,4.30
2018-11-01T20:17:03.614Z,4.13
2018-11-01T20:19:32.103Z,4.00
2018-11-01T20:22:00.547Z,3.75
2018-11-01T20:24:29.033Z,3.90
2018-11-01T20:26:57.524Z,3.90
2018-11-01T20:29:26.044Z,4.50
2018-11-01T20:31:54.638Z,4.97
2018-11-01T20:34:23.175Z,4.30
2018-11-01T20:36:51.626Z,3.70
2018-11-01T20:39:20.114Z,4.73
2018-11-01T20:41:48.602Z,4.90
2018-11-01T20:44:17.105Z,3.93
2018-11-01T20:46:45.586Z,4.00
2018-11-01T20:49:14.174Z,3.98
2018-11-01T20:51:42.658Z,4.57
2018-11-01T20:54:11.178Z,4.10
2018-11-01T20:56:39.646Z,4.07
2018-11-01T20:59:08.152Z,4.57
2018-11-01T21:01:36.614Z,3.90
2018-11-01T21:04:05.771Z,4.10
2018-11-01T21:06:34.266Z,4.27
2018-11-01T21:09:02.806Z,3.80
2018-11-01T21:11:31.405Z,3.53
2018-11-01T21:13:59.785Z,4.20
2018-11-01T21:16:28.240Z,3.60
2018-11-01T21:18:56.758Z,3.97
2018-11-01T21:21:25.210Z,5.50
2018-11-01T21:23:53.669Z,3.63
2018-11-01T21:26:22.194Z,4.23
2018-11-01T21:28:50.671Z,4.20
2018-11-01T21:31:19.143Z,4.17
2018-11-01T21:33:47.610Z,4.13
2018-11-01T21:36:16.103Z,4.00
2018-11-01T21:38:44.563Z,4.10
2018-11-01T21:41:13.058Z,4.00
2018-11-01T21:43:41.515Z,4.07
2018-11-01T21:46:10.027Z,4.40
2018-11-01T21:48:38.542Z,3.70
2018-11-01T21:51:07.033Z,3.90
2018-11-01T21:53:35.487Z,3.70
2018-11-01T21:56:03.977Z,3.93
2018-11-01T21:58:32.507Z,4.00
2018-11-01T22:01:00.993Z,4.60
2018-11-01T22:03:29.454Z,3.83
2018-11-01T22:05:57.953Z,3.83
2018-11-01T22:08:26.431Z,3.27
2018-11-01T22:10:54.909Z,3.03
2018-11-01T22:13:23.513Z,3.70
2018-11-01T22:15:51.996Z,3.73
2018-11-01T22:18:20.486Z,4.53
2018-11-01T22:20:48.950Z,3.77
2018-11-01T22:23:17.487Z,3.90
2018-11-01T22:25:45.959Z,3.47
2018-11-01T22:28:14.573Z,4.00
2018-11-01T22:30:42.965Z,4.17
2018-11-01T22:33:11.438Z,3.97
2018-11-01T22:35:39.923Z,4.40
2018-11-01T22:38:08.394Z,4.45
2018-11-01T22:40:36.863Z,3.73
2018-11-01T22:43:05.640Z,4.10
2018-11-01T22:45:34.122Z,3.70
2018-11-01T22:48:02.610Z,8.87
2018-11-01T22:50:31.058Z,5.07
2018-11-01T22:52:59.543Z,4.27
2018-11-01T22:55:28.250Z,3.80
2018-11-01T22:57:56.683Z,3.40
2018-11-01T23:00:25.195Z,3.50
2018-11-01T23:02:53.683Z,4.13
2018-11-01T23:05:22.134Z,3.67
2018-11-01T23:07:50.738Z,4.30
2018-11-01T23:10:19.249Z,4.37
2018-11-01T23:12:47.754Z,3.30
2018-11-01T23:15:16.252Z,3.93
2018-11-01T23:17:44.771Z,3.63
2018-11-01T23:20:13.814Z,3.77
2018-11-01T23:22:42.299Z,3.80
2018-11-01T23:25:10.780Z,3.93
2018-11-01T23:27:39.271Z,4.13
2018-11-01T23:30:07.808Z,6.70
2018-11-01T23:32:36.274Z,4.93
2018-11-01T23:35:05.141Z,5.13
2018-11-01T23:37:39.083Z,128.13
2018-11-01T23:40:12.803Z,9.07
2018-11-01T23:42:46.595Z,6.03
2018-11-01T23:45:20.334Z,4.80
2018-11-01T23:47:54.094Z,5.60
2018-11-01T23:50:26.912Z,5.43
2018-11-01T23:52:58.031Z,3.80
2018-11-01T23:55:26.529Z,3.90
2018-11-01T23:57:55.037Z,5.00
